createdAt,value
2023-04-09T00:01:07.180Z,41.05
2023-04-09T00:02:10.839Z,42.97
2023-04-09T00:03:14.790Z,42.88
2023-04-09T00:04:17.828Z,331.00
2023-04-09T00:05:19.681Z,39.05
2023-04-09T00:06:22.636Z,137.95
2023-04-09T00:07:24.442Z,41.35
2023-04-09T00:08:27.354Z,50.75
2023-04-09T00:09:29.623Z,55.88
2023-04-09T00:10:32.440Z,63.42
2023-04-09T00:11:34.296Z,82.07
2023-04-09T00:12:37.914Z,137.65
2023-04-09T00:13:40.152Z,522.05
2023-04-09T00:14:44.394Z,412.05
2023-04-09T00:15:46.801Z,451.25
2023-04-09T00:16:49.629Z,433.08
2023-04-09T00:17:52.352Z,85.97
2023-04-09T00:18:56.383Z,538.40
2023-04-09T00:19:58.207Z,514.83
2023-04-09T00:21:01.010Z,537.95
2023-04-09T00:22:03.231Z,674.17
2023-04-09T00:23:06.085Z,795.58
2023-04-09T00:24:07.910Z,324.05
2023-04-09T00:25:10.758Z,316.65
2023-04-09T00:26:12.581Z,283.23
2023-04-09T00:27:15.780Z,348.17
2023-04-09T00:28:18.069Z,226.45
2023-04-09T00:29:21.317Z,384.30
2023-04-09T00:30:24.772Z,238.30
2023-04-09T00:31:27.666Z,450.13
2023-04-09T00:32:29.521Z,583.97
2023-04-09T00:33:32.358Z,364.98
2023-04-09T00:34:34.374Z,143.30
2023-04-09T00:35:37.226Z,282.95
2023-04-09T00:36:39.080Z,249.80
2023-04-09T00:37:42.052Z,340.45
2023-04-09T00:38:43.935Z,404.25
2023-04-09T00:39:47.763Z,176.18
2023-04-09T00:40:50.449Z,302.77
2023-04-09T00:41:57.854Z,174.60
2023-04-09T00:42:59.660Z,233.68
2023-04-09T00:44:02.511Z,143.50
2023-04-09T00:45:06.021Z,113.97
2023-04-09T00:46:10.342Z,145.13
2023-04-09T00:47:12.606Z,201.25
2023-04-09T00:48:16.145Z,248.10
2023-04-09T00:49:18.074Z,169.93
2023-04-09T00:50:24.645Z,446.55
2023-04-09T00:51:26.792Z,115.65
2023-04-09T00:52:31.029Z,125.97
2023-04-09T00:53:34.937Z,132.40
2023-04-09T00:54:37.016Z,133.45
2023-04-09T00:55:41.521Z,181.07
2023-04-09T00:56:44.099Z,940.90
2023-04-09T00:57:46.950Z,947.58
2023-04-09T00:58:49.352Z,710.40
2023-04-09T00:59:52.378Z,502.30
2023-04-09T01:00:56.084Z,457.02
2023-04-09T01:01:59.344Z,448.67
2023-04-09T01:03:02.590Z,408.90
2023-04-09T01:04:04.771Z,449.38
2023-04-09T01:05:08.081Z,565.25
2023-04-09T01:06:13.749Z,525.88
2023-04-09T01:07:21.881Z,461.10
2023-04-09T01:08:32.532Z,426.88
2023-04-09T01:09:38.342Z,759.85
2023-04-09T01:10:42.685Z,742.15
2023-04-09T01:11:52.925Z,283.27
2023-04-09T01:13:03.928Z,280.35
2023-04-09T01:14:11.393Z,193.77
2023-04-09T01:15:16.998Z,264.02
2023-04-09T01:16:19.490Z,207.35
2023-04-09T01:17:27.238Z,155.80
2023-04-09T01:18:31.565Z,147.60
2023-04-09T01:19:43.123Z,163.05
2023-04-09T01:20:50.302Z,156.65
2023-04-09T01:21:53.590Z,113.88
2023-04-09T01:23:02.636Z,119.20
2023-04-09T01:24:15.947Z,104.85
2023-04-09T01:25:32.921Z,108.55
2023-04-09T01:26:46.793Z,123.15
2023-04-09T01:27:59.579Z,80.88
2023-04-09T01:29:04.304Z,82.95
2023-04-09T01:30:07.605Z,235.45
2023-04-09T01:31:13.589Z,372.48
2023-04-09T01:32:17.016Z,581.03
2023-04-09T01:33:25.023Z,122.85
2023-04-09T01:34:27.588Z,87.72
2023-04-09T01:35:30.900Z,57.17
2023-04-09T01:36:33.634Z,59.45
2023-04-09T01:37:37.008Z,57.20
2023-04-09T01:38:41.127Z,74.13
2023-04-09T01:39:44.265Z,58.58
2023-04-09T01:40:46.180Z,57.03
2023-04-09T01:41:49.580Z,59.75
2023-04-09T01:42:52.032Z,58.30
2023-04-09T01:43:55.372Z,60.25
2023-04-09T01:44:59.381Z,62.03
2023-04-09T01:46:03.437Z,72.30
2023-04-09T01:47:05.555Z,171.00
2023-04-09T01:48:08.404Z,333.90
2023-04-09T01:49:11.634Z,224.98
2023-04-09T01:50:15.000Z,372.00
2023-04-09T01:51:17.658Z,355.00
2023-04-09T01:52:20.828Z,68.72
2023-04-09T01:53:22.829Z,87.28
2023-04-09T01:54:26.238Z,79.00
2023-04-09T01:55:31.339Z,174.82
2023-04-09T01:56:42.037Z,265.38
2023-04-09T01:57:43.839Z,325.38
2023-04-09T01:58:46.812Z,619.42
2023-04-09T01:59:48.643Z,304.70
2023-04-09T02:00:59.929Z,504.02
2023-04-09T02:02:11.117Z,72.40
2023-04-09T02:03:18.369Z,91.68
2023-04-09T02:04:25.157Z,92.50
2023-04-09T02:05:29.490Z,105.07
2023-04-09T02:06:36.013Z,263.88
2023-04-09T02:07:40.570Z,96.38
2023-04-09T02:08:46.492Z,119.28
2023-04-09T02:09:48.601Z,105.60
2023-04-09T02:10:55.617Z,240.23
2023-04-09T02:11:58.875Z,385.50
2023-04-09T02:13:03.191Z,117.85
2023-04-09T02:14:08.665Z,104.20
2023-04-09T02:15:13.992Z,139.20
2023-04-09T02:16:17.700Z,142.38
2023-04-09T02:17:20.830Z,137.40
2023-04-09T02:18:24.261Z,122.80
2023-04-09T02:19:39.538Z,111.05
2023-04-09T02:20:41.330Z,235.25
2023-04-09T02:21:45.692Z,160.40
2023-04-09T02:22:47.705Z,140.65
2023-04-09T02:23:50.748Z,121.78
2023-04-09T02:24:53.400Z,74.15
2023-04-09T02:25:56.285Z,69.45
2023-04-09T02:26:58.188Z,67.32
2023-04-09T02:28:01.230Z,69.90
2023-04-09T02:29:03.535Z,86.93
2023-04-09T02:30:07.451Z,78.10
2023-04-09T02:31:09.500Z,72.13
2023-04-09T02:32:13.768Z,70.97
2023-04-09T02:33:15.648Z,88.25
2023-04-09T02:34:18.668Z,100.30
2023-04-09T02:35:20.818Z,75.70
2023-04-09T02:36:23.590Z,113.68
2023-04-09T02:37:26.211Z,76.43
2023-04-09T02:38:29.030Z,123.15
2023-04-09T02:39:31.013Z,125.13
2023-04-09T02:40:33.877Z,91.15
2023-04-09T02:41:35.859Z,62.50
2023-04-09T02:42:38.722Z,69.53
2023-04-09T02:43:42.183Z,104.68
2023-04-09T02:44:45.281Z,133.02
2023-04-09T02:45:48.636Z,103.82
2023-04-09T02:46:52.458Z,158.23
2023-04-09T02:47:55.953Z,204.65
2023-04-09T02:48:58.792Z,99.40
2023-04-09T02:50:00.724Z,61.83
2023-04-09T02:51:06.922Z,58.40
2023-04-09T02:52:10.153Z,51.13
2023-04-09T02:53:13.128Z,48.70
2023-04-09T02:54:14.965Z,53.38
2023-04-09T02:55:19.759Z,58.75
2023-04-09T02:56:21.725Z,50.75
2023-04-09T02:57:24.562Z,60.42
2023-04-09T02:58:26.408Z,54.63
2023-04-09T02:59:29.256Z,57.35
2023-04-09T03:00:31.384Z,65.13
2023-04-09T03:01:34.227Z,64.10
2023-04-09T03:02:36.624Z,72.95
2023-04-09T03:03:42.520Z,62.55
2023-04-09T03:04:44.407Z,102.93
2023-04-09T03:05:48.058Z,67.47
2023-04-09T03:06:51.591Z,72.20
2023-04-09T03:07:55.073Z,84.88
2023-04-09T03:08:58.176Z,83.07
2023-04-09T03:10:00.979Z,105.13
2023-04-09T03:11:02.911Z,98.35
2023-04-09T03:12:05.862Z,68.72
2023-04-09T03:13:07.722Z,70.55
2023-04-09T03:14:10.927Z,72.70
2023-04-09T03:15:14.409Z,79.65
2023-04-09T03:16:17.333Z,186.40
2023-04-09T03:17:19.209Z,137.07
2023-04-09T03:18:22.518Z,156.65
2023-04-09T03:19:30.693Z,111.20
2023-04-09T03:20:32.538Z,187.52
2023-04-09T03:21:35.440Z,128.02
2023-04-09T03:22:37.628Z,133.45
2023-04-09T03:23:43.276Z,94.38
2023-04-09T03:24:45.469Z,272.27
2023-04-09T03:25:48.260Z,445.27
2023-04-09T03:26:52.180Z,238.15
2023-04-09T03:27:55.073Z,86.43
2023-04-09T03:29:16.534Z,73.05
2023-04-09T03:30:18.726Z,66.57
2023-04-09T03:31:21.958Z,91.18
2023-04-09T03:32:23.978Z,60.88
2023-04-09T03:33:26.815Z,58.58
2023-04-09T03:34:32.158Z,67.07
2023-04-09T03:35:35.107Z,67.00
2023-04-09T03:36:39.004Z,74.20
2023-04-09T03:37:54.306Z,86.68
2023-04-09T03:38:57.478Z,89.75
2023-04-09T03:40:10.513Z,342.50
2023-04-09T03:41:13.825Z,92.30
2023-04-09T03:42:15.824Z,111.85
2023-04-09T03:43:23.105Z,157.35
2023-04-09T03:44:27.804Z,74.93
2023-04-09T03:45:35.512Z,70.90
2023-04-09T03:46:50.826Z,68.93
2023-04-09T03:47:57.446Z,62.50
2023-04-09T03:49:01.730Z,51.95
2023-04-09T03:50:16.300Z,91.55
2023-04-09T03:51:27.770Z,111.88
2023-04-09T03:52:33.925Z,100.82
2023-04-09T03:53:40.709Z,81.05
2023-04-09T03:54:43.956Z,106.15
2023-04-09T03:55:53.628Z,58.88
2023-04-09T03:57:01.438Z,69.10
2023-04-09T03:58:03.423Z,53.88
2023-04-09T03:59:10.023Z,61.80
2023-04-09T04:00:15.206Z,57.47
2023-04-09T04:01:26.826Z,62.20
2023-04-09T04:02:33.837Z,65.43
2023-04-09T04:03:43.984Z,58.42
2023-04-09T04:04:52.925Z,71.55
2023-04-09T04:06:03.421Z,67.53
2023-04-09T04:07:17.705Z,89.22
2023-04-09T04:08:29.816Z,74.82
2023-04-09T04:09:33.378Z,78.25
2023-04-09T04:10:41.554Z,185.15
2023-04-09T04:11:44.413Z,131.48
2023-04-09T04:12:47.889Z,178.07
2023-04-09T04:14:10.076Z,214.70
2023-04-09T04:15:14.751Z,233.93
2023-04-09T04:16:21.278Z,122.65
2023-04-09T04:17:24.529Z,82.13
2023-04-09T04:18:27.546Z,79.07
2023-04-09T04:19:30.746Z,87.88
2023-04-09T04:20:33.617Z,116.40
2023-04-09T04:21:44.094Z,115.93
2023-04-09T04:22:46.132Z,94.93
2023-04-09T04:23:49.100Z,144.88
2023-04-09T04:24:57.251Z,153.73
2023-04-09T04:26:01.164Z,88.22
2023-04-09T04:27:11.302Z,81.82
2023-04-09T04:28:13.294Z,88.75
2023-04-09T04:29:18.017Z,63.95
2023-04-09T04:30:28.965Z,75.45
2023-04-09T04:31:38.614Z,61.70
2023-04-09T04:32:40.776Z,60.95
2023-04-09T04:33:47.168Z,64.93
2023-04-09T04:34:50.914Z,71.95
2023-04-09T04:36:08.095Z,69.57
2023-04-09T04:37:38.337Z,64.13
2023-04-09T04:38:41.273Z,74.85
2023-04-09T04:39:51.230Z,77.43
2023-04-09T04:40:53.909Z,79.65
2023-04-09T04:41:58.323Z,93.53
2023-04-09T04:43:02.839Z,83.78
2023-04-09T04:44:07.200Z,98.00
2023-04-09T04:45:13.062Z,105.28
2023-04-09T04:46:28.812Z,93.55
2023-04-09T04:47:30.968Z,99.50
2023-04-09T04:48:34.618Z,81.75
2023-04-09T04:49:36.483Z,101.05
2023-04-09T04:50:41.941Z,123.65
2023-04-09T04:51:46.866Z,117.05
2023-04-09T04:52:53.185Z,111.57
2023-04-09T04:53:58.094Z,107.78
2023-04-09T04:55:01.798Z,115.35
2023-04-09T04:56:07.614Z,125.30
2023-04-09T04:57:10.645Z,138.25
2023-04-09T04:58:15.585Z,135.65
2023-04-09T04:59:23.005Z,123.38
2023-04-09T05:00:34.240Z,144.63
2023-04-09T05:01:39.507Z,130.50
2023-04-09T05:02:47.409Z,145.10
2023-04-09T05:03:54.299Z,136.13
2023-04-09T05:05:17.840Z,140.32
2023-04-09T05:06:27.948Z,133.35
2023-04-09T05:07:32.176Z,132.57
2023-04-09T05:08:36.588Z,137.45
2023-04-09T05:09:38.513Z,148.27
2023-04-09T05:10:44.675Z,145.98
2023-04-09T05:11:47.495Z,120.93
2023-04-09T05:12:55.033Z,93.25
2023-04-09T05:14:07.080Z,101.88
2023-04-09T05:15:10.349Z,96.38
2023-04-09T05:16:17.451Z,100.07
2023-04-09T05:17:24.672Z,105.43
2023-04-09T05:18:26.701Z,114.90
2023-04-09T05:19:29.879Z,115.45
2023-04-09T05:20:37.188Z,112.40
2023-04-09T05:21:46.804Z,103.05
2023-04-09T05:22:50.517Z,107.25
2023-04-09T05:24:02.401Z,94.43
2023-04-09T05:25:08.315Z,96.10
2023-04-09T05:26:14.644Z,76.28
2023-04-09T05:27:30.283Z,67.65
2023-04-09T05:28:37.232Z,70.78
2023-04-09T05:29:46.110Z,67.53
2023-04-09T05:30:49.444Z,62.33
2023-04-09T05:31:54.457Z,67.13
2023-04-09T05:33:02.425Z,74.53
2023-04-09T05:34:07.291Z,62.45
2023-04-09T05:35:14.081Z,68.90
2023-04-09T05:36:20.447Z,70.45
2023-04-09T05:37:22.318Z,64.47
2023-04-09T05:38:27.933Z,69.63
2023-04-09T05:39:35.056Z,67.25
2023-04-09T05:40:38.245Z,62.00
2023-04-09T05:41:47.562Z,54.83
2023-04-09T05:43:04.617Z,68.43
2023-04-09T05:44:15.680Z,65.43
2023-04-09T05:45:18.426Z,58.38
2023-04-09T05:46:25.810Z,57.33
2023-04-09T05:47:30.592Z,63.50
2023-04-09T05:48:38.803Z,79.15
2023-04-09T05:49:41.192Z,127.53
2023-04-09T05:50:55.078Z,97.35
2023-04-09T05:52:00.111Z,99.10
2023-04-09T05:53:05.545Z,99.35
2023-04-09T05:54:13.717Z,147.88
2023-04-09T05:55:18.646Z,202.38
2023-04-09T05:56:27.090Z,197.68
2023-04-09T05:57:33.329Z,238.85
2023-04-09T05:58:38.918Z,186.45
2023-04-09T05:59:41.755Z,116.57
2023-04-09T06:00:43.691Z,110.82
2023-04-09T06:01:46.569Z,127.55
2023-04-09T06:02:48.599Z,134.90
2023-04-09T06:03:53.831Z,128.70
2023-04-09T06:04:57.395Z,102.95
2023-04-09T06:06:01.066Z,95.68
2023-04-09T06:07:03.640Z,73.75
2023-04-09T06:08:06.491Z,74.22
2023-04-09T06:09:09.973Z,81.97
2023-04-09T06:10:14.383Z,83.18
2023-04-09T06:11:21.298Z,86.10
2023-04-09T06:12:24.107Z,92.70
2023-04-09T06:13:26.417Z,90.15
2023-04-09T06:14:29.287Z,91.85
2023-04-09T06:15:31.340Z,77.05
2023-04-09T06:16:34.858Z,72.18
2023-04-09T06:17:36.810Z,57.92
2023-04-09T06:18:39.636Z,50.92
2023-04-09T06:19:42.670Z,52.42
2023-04-09T06:20:44.610Z,55.60
2023-04-09T06:21:47.501Z,53.00
2023-04-09T06:22:50.379Z,51.60
2023-04-09T06:23:53.648Z,54.53
2023-04-09T06:24:57.269Z,54.65
2023-04-09T06:25:59.723Z,63.83
2023-04-09T06:27:04.329Z,69.93
2023-04-09T06:28:06.625Z,65.05
2023-04-09T06:29:11.484Z,75.25
2023-04-09T06:30:15.677Z,78.60
2023-04-09T06:31:17.781Z,77.00
2023-04-09T06:32:20.839Z,72.03
2023-04-09T06:33:24.236Z,81.05
2023-04-09T06:34:27.123Z,81.63
2023-04-09T06:35:31.695Z,71.28
2023-04-09T06:36:33.753Z,59.47
2023-04-09T06:37:45.966Z,55.55
2023-04-09T06:38:50.588Z,54.20
2023-04-09T06:40:00.445Z,52.00
2023-04-09T06:41:08.480Z,49.05
2023-04-09T06:42:11.897Z,49.85
2023-04-09T06:43:25.372Z,46.53
2023-04-09T06:44:29.804Z,45.92
2023-04-09T06:45:35.414Z,46.20
2023-04-09T06:46:37.538Z,38.95
2023-04-09T06:47:40.535Z,43.55
2023-04-09T06:48:44.614Z,38.55
2023-04-09T06:49:47.580Z,40.55
2023-04-09T06:50:49.501Z,40.08
2023-04-09T06:51:54.924Z,39.80
2023-04-09T06:52:58.405Z,35.92
2023-04-09T06:54:00.416Z,35.58
2023-04-09T06:55:03.617Z,35.33
2023-04-09T06:56:06.244Z,32.97
2023-04-09T06:57:09.323Z,35.95
2023-04-09T06:58:12.747Z,35.40
2023-04-09T06:59:16.225Z,36.03
2023-04-09T07:00:18.182Z,34.95
2023-04-09T07:01:21.769Z,31.42
2023-04-09T07:03:41.777Z,29.50
2023-04-09T07:04:45.026Z,29.33
2023-04-09T07:05:48.649Z,31.50
2023-04-09T07:06:54.832Z,31.45
2023-04-09T07:07:57.063Z,28.90
2023-04-09T07:09:00.026Z,39.65
2023-04-09T07:10:03.089Z,33.45
2023-04-09T07:11:06.547Z,24.63
2023-04-09T07:12:09.437Z,29.70
2023-04-09T07:13:12.764Z,28.73
2023-04-09T07:14:21.735Z,33.08
2023-04-09T07:15:23.703Z,31.63
2023-04-09T07:16:26.598Z,30.73
2023-04-09T07:17:37.557Z,31.50
2023-04-09T07:18:40.758Z,38.40
2023-04-09T07:19:42.701Z,40.92
2023-04-09T07:20:46.867Z,38.05
2023-04-09T07:21:48.762Z,70.00
2023-04-09T07:22:51.593Z,52.90
2023-04-09T07:23:54.806Z,33.50
2023-04-09T07:24:56.925Z,33.95
2023-04-09T07:26:03.302Z,34.63
2023-04-09T07:27:06.475Z,37.95
2023-04-09T07:28:08.488Z,33.83
2023-04-09T07:29:12.927Z,40.60
2023-04-09T07:30:15.018Z,41.25
2023-04-09T07:31:17.990Z,37.22
2023-04-09T07:32:22.556Z,40.13
2023-04-09T07:33:25.958Z,42.15
2023-04-09T07:34:28.566Z,43.80
2023-04-09T07:35:38.933Z,41.03
2023-04-09T07:36:43.108Z,46.35
2023-04-09T07:37:46.675Z,44.83
2023-04-09T07:38:49.817Z,43.10
2023-04-09T07:39:54.901Z,46.03
2023-04-09T07:40:58.458Z,42.67
2023-04-09T07:42:02.821Z,44.67
2023-04-09T07:43:07.567Z,42.97
2023-04-09T07:44:38.727Z,41.50
2023-04-09T07:45:45.051Z,43.20
2023-04-09T07:46:48.015Z,44.22
2023-04-09T07:47:51.577Z,43.47
2023-04-09T07:48:55.192Z,38.63
2023-04-09T07:49:57.301Z,42.08
2023-04-09T07:51:00.729Z,38.88
2023-04-09T07:52:44.631Z,42.55
2023-04-09T07:53:56.090Z,38.50
2023-04-09T07:54:58.572Z,43.05
2023-04-09T07:56:04.605Z,40.35
2023-04-09T07:57:14.843Z,42.88
2023-04-09T07:58:17.879Z,41.67
2023-04-09T07:59:20.053Z,47.65
2023-04-09T08:00:30.727Z,42.03
2023-04-09T08:01:32.953Z,55.75
2023-04-09T08:02:36.462Z,60.83
2023-04-09T08:03:39.621Z,47.13
2023-04-09T08:04:42.851Z,47.58
2023-04-09T08:05:45.989Z,45.15
2023-04-09T08:06:52.712Z,45.58
2023-04-09T08:07:54.767Z,45.60
2023-04-09T08:08:57.658Z,44.95
2023-04-09T08:09:59.587Z,48.95
2023-04-09T08:11:03.535Z,48.40
2023-04-09T08:12:05.638Z,46.20
2023-04-09T08:13:09.596Z,55.30
2023-04-09T08:14:13.916Z,52.88
2023-04-09T08:15:16.826Z,47.97
2023-04-09T08:16:23.569Z,47.22
2023-04-09T08:17:27.824Z,45.35
2023-04-09T08:18:31.285Z,44.90
2023-04-09T08:19:33.358Z,44.35
2023-04-09T08:20:36.573Z,43.35
2023-04-09T08:21:38.745Z,44.35
2023-04-09T08:22:44.676Z,47.88
2023-04-09T08:23:47.648Z,42.58
2023-04-09T08:24:52.826Z,45.55
2023-04-09T08:25:54.746Z,44.67
2023-04-09T08:26:58.569Z,45.95
2023-04-09T08:28:00.791Z,44.60
2023-04-09T08:29:03.810Z,44.85
2023-04-09T08:30:07.905Z,42.10
2023-04-09T08:31:09.825Z,44.20
2023-04-09T08:32:14.224Z,45.58
2023-04-09T08:34:48.702Z,41.97
2023-04-09T08:35:51.597Z,43.65
2023-04-09T08:36:53.640Z,41.33
2023-04-09T08:37:57.620Z,40.20
2023-04-09T08:39:00.568Z,45.97
2023-04-09T08:40:03.935Z,63.38
2023-04-09T08:41:05.898Z,68.93
2023-04-09T08:42:12.547Z,60.72
2023-04-09T08:43:16.824Z,70.57
2023-04-09T08:44:18.852Z,59.13
2023-04-09T08:45:22.460Z,43.10
2023-04-09T08:46:24.944Z,40.17
2023-04-09T08:47:29.467Z,39.13
2023-04-09T08:48:32.671Z,36.20
2023-04-09T08:49:35.823Z,38.22
2023-04-09T08:50:37.772Z,37.83
2023-04-09T08:51:40.804Z,34.25
2023-04-09T08:52:43.044Z,44.60
2023-04-09T08:53:47.752Z,39.50
2023-04-09T08:54:52.109Z,38.58
2023-04-09T08:55:54.895Z,42.47
2023-04-09T08:56:58.937Z,38.60
2023-04-09T08:58:04.716Z,42.15
2023-04-09T08:59:07.660Z,39.92
2023-04-09T09:00:10.607Z,41.83
2023-04-09T09:01:21.722Z,40.35
2023-04-09T09:02:24.998Z,40.13
2023-04-09T09:03:28.430Z,45.10
2023-04-09T09:04:44.970Z,43.33
2023-04-09T09:05:47.124Z,42.15
2023-04-09T09:06:50.208Z,39.35
2023-04-09T09:07:54.662Z,38.70
2023-04-09T09:09:06.122Z,41.97
2023-04-09T09:10:09.819Z,42.28
2023-04-09T09:11:25.917Z,42.60
2023-04-09T09:12:36.972Z,38.20
2023-04-09T09:13:39.869Z,42.28
2023-04-09T09:14:42.957Z,43.78
2023-04-09T09:15:46.194Z,40.88
2023-04-09T09:17:05.314Z,41.63
2023-04-09T09:18:08.732Z,43.63
2023-04-09T09:19:30.472Z,48.35
2023-04-09T09:20:32.506Z,40.70
2023-04-09T09:21:36.490Z,44.08
2023-04-09T09:22:54.923Z,40.92
2023-04-09T09:23:58.812Z,41.60
2023-04-09T09:25:00.974Z,41.72
2023-04-09T09:26:13.186Z,39.38
2023-04-09T09:27:31.407Z,40.35
2023-04-09T09:28:36.404Z,40.35
2023-04-09T09:29:41.858Z,36.97
2023-04-09T09:30:49.174Z,40.90
2023-04-09T09:31:55.591Z,39.88
2023-04-09T09:33:05.772Z,38.78
2023-04-09T09:34:10.162Z,38.78
2023-04-09T09:35:14.781Z,38.65
2023-04-09T09:36:17.742Z,39.58
2023-04-09T09:37:26.995Z,41.75
2023-04-09T09:38:32.147Z,47.15
2023-04-09T09:39:44.696Z,45.75
2023-04-09T09:40:47.780Z,41.78
2023-04-09T09:42:08.188Z,42.35
2023-04-09T09:43:11.878Z,41.95
2023-04-09T09:44:32.910Z,44.67
2023-04-09T09:45:36.757Z,35.90
2023-04-09T09:46:41.647Z,48.13
2023-04-09T09:47:44.670Z,51.20
2023-04-09T09:48:50.003Z,44.85
2023-04-09T09:49:52.441Z,45.65
2023-04-09T09:50:56.920Z,43.03
2023-04-09T09:52:00.590Z,47.33
2023-04-09T09:53:05.589Z,38.60
2023-04-09T09:54:08.523Z,38.50
2023-04-09T09:55:14.940Z,41.38
2023-04-09T09:56:20.770Z,41.05
2023-04-09T09:57:26.804Z,36.88
2023-04-09T09:58:32.782Z,39.42
2023-04-09T09:59:38.930Z,41.08
2023-04-09T10:00:41.341Z,38.55
2023-04-09T10:01:47.505Z,33.58
2023-04-09T10:02:59.318Z,33.53
2023-04-09T10:04:02.829Z,33.38
2023-04-09T10:05:07.450Z,39.45
2023-04-09T10:06:12.605Z,40.30
2023-04-09T10:07:16.120Z,39.72
2023-04-09T10:08:19.717Z,35.75
2023-04-09T10:09:23.232Z,38.15
2023-04-09T10:10:25.302Z,35.50
2023-04-09T10:11:28.310Z,38.72
2023-04-09T10:12:31.296Z,36.42
2023-04-09T10:13:36.689Z,35.97
2023-04-09T10:14:41.095Z,37.80
2023-04-09T10:15:44.705Z,38.25
2023-04-09T10:16:47.698Z,35.97
2023-04-09T10:17:50.604Z,34.53
2023-04-09T10:18:54.517Z,32.83
2023-04-09T10:20:01.870Z,32.75
2023-04-09T10:21:10.432Z,34.63
2023-04-09T10:22:19.186Z,36.47
2023-04-09T10:23:29.192Z,36.58
2023-04-09T10:24:32.714Z,34.78
2023-04-09T10:25:35.676Z,36.97
2023-04-09T10:26:42.085Z,35.83
2023-04-09T10:27:46.129Z,33.70
2023-04-09T10:29:05.443Z,37.28
2023-04-09T10:30:10.774Z,38.30
2023-04-09T10:31:14.322Z,36.67
2023-04-09T10:32:21.611Z,32.90
2023-04-09T10:33:26.649Z,39.97
2023-04-09T10:34:30.177Z,33.13
2023-04-09T10:35:32.088Z,40.28
2023-04-09T10:36:34.984Z,39.30
2023-04-09T10:37:49.644Z,39.00
2023-04-09T10:38:52.692Z,35.90
2023-04-09T10:39:54.893Z,38.17
2023-04-09T10:40:58.562Z,36.83
2023-04-09T10:42:02.448Z,38.45
2023-04-09T10:43:06.461Z,36.55
2023-04-09T10:44:20.441Z,38.60
2023-04-09T10:45:23.421Z,33.47
2023-04-09T10:46:26.907Z,32.70
2023-04-09T10:47:33.765Z,37.35
2023-04-09T10:48:35.936Z,32.75
2023-04-09T10:49:42.819Z,32.80
2023-04-09T10:50:51.192Z,34.58
2023-04-09T10:51:55.618Z,32.63
2023-04-09T10:53:02.275Z,35.97
2023-04-09T10:54:46.231Z,36.83
2023-04-09T10:55:50.504Z,39.03
2023-04-09T10:57:14.032Z,38.83
2023-04-09T10:58:17.010Z,36.25
2023-04-09T10:59:21.042Z,37.20
2023-04-09T11:00:27.351Z,36.30
2023-04-09T11:01:29.417Z,39.75
2023-04-09T11:03:08.422Z,40.25
2023-04-09T11:04:43.131Z,35.92
2023-04-09T11:05:49.400Z,31.65
2023-04-09T11:06:53.374Z,31.83
2023-04-09T11:07:59.607Z,32.50
2023-04-09T11:09:04.673Z,32.15
2023-04-09T11:10:07.989Z,31.25
2023-04-09T11:11:11.530Z,35.42
2023-04-09T11:12:13.413Z,30.40
2023-04-09T11:13:17.586Z,35.75
2023-04-09T11:14:20.038Z,33.30
2023-04-09T11:15:23.305Z,32.50
2023-04-09T11:16:29.004Z,29.92
2023-04-09T11:17:31.480Z,32.13
2023-04-09T11:18:36.971Z,30.48
2023-04-09T11:20:08.709Z,31.10
2023-04-09T11:21:13.436Z,30.38
2023-04-09T11:22:15.668Z,28.08
2023-04-09T11:23:19.138Z,26.73
2023-04-09T11:24:23.185Z,29.65
2023-04-09T11:25:27.848Z,27.08
2023-04-09T11:26:36.061Z,27.10
2023-04-09T11:27:39.811Z,32.65
2023-04-09T11:28:44.451Z,30.70
2023-04-09T11:29:46.375Z,30.07
2023-04-09T11:30:53.023Z,33.35
2023-04-09T11:31:55.542Z,25.93
2023-04-09T11:32:58.550Z,26.23
2023-04-09T11:34:01.433Z,25.57
2023-04-09T11:35:03.731Z,24.53
2023-04-09T11:36:07.399Z,26.23
2023-04-09T11:37:14.418Z,24.53
2023-04-09T11:38:17.414Z,22.73
2023-04-09T11:39:19.317Z,20.27
2023-04-09T11:40:24.576Z,18.77
2023-04-09T11:41:36.683Z,18.20
2023-04-09T11:42:38.779Z,23.23
2023-04-09T11:43:41.772Z,16.53
2023-04-09T11:44:51.611Z,16.57
2023-04-09T11:45:53.959Z,19.97
2023-04-09T11:46:58.108Z,19.40
2023-04-09T11:48:03.353Z,21.10
2023-04-09T11:49:05.520Z,22.87
2023-04-09T11:50:09.734Z,18.63
2023-04-09T11:51:12.632Z,17.23
2023-04-09T11:52:16.522Z,17.17
2023-04-09T11:53:20.789Z,15.27
2023-04-09T11:54:22.859Z,15.87
2023-04-09T11:55:28.218Z,14.43
2023-04-09T11:56:31.139Z,16.07
2023-04-09T11:57:44.753Z,13.33
2023-04-09T11:58:48.187Z,16.97
2023-04-09T11:59:50.202Z,17.10
2023-04-09T12:01:01.361Z,17.90
2023-04-09T12:02:07.837Z,14.73
2023-04-09T12:03:12.182Z,11.50
2023-04-09T12:04:21.361Z,14.20
2023-04-09T12:05:24.875Z,21.48
2023-04-09T12:06:28.583Z,20.43
2023-04-09T12:07:33.303Z,20.73
2023-04-09T12:08:37.332Z,16.47
2023-04-09T12:09:47.737Z,19.40
2023-04-09T12:10:53.578Z,19.57
2023-04-09T12:11:57.471Z,19.73
2023-04-09T12:13:04.618Z,20.23
2023-04-09T12:14:07.906Z,18.40
2023-04-09T12:15:20.704Z,20.38
2023-04-09T12:16:23.886Z,20.88
2023-04-09T12:17:27.080Z,26.80
2023-04-09T12:18:30.014Z,18.50
2023-04-09T12:19:32.051Z,35.88
2023-04-09T12:20:36.677Z,15.83
2023-04-09T12:21:50.055Z,20.07
2023-04-09T12:22:52.085Z,19.10
2023-04-09T12:23:55.349Z,18.98
2023-04-09T12:24:57.789Z,21.52
2023-04-09T12:26:02.447Z,17.25
2023-04-09T12:27:07.032Z,18.73
2023-04-09T12:28:12.042Z,16.33
2023-04-09T12:29:15.070Z,17.02
2023-04-09T12:30:18.971Z,18.13
2023-04-09T12:31:22.066Z,18.10
2023-04-09T12:32:24.435Z,18.48
2023-04-09T12:33:31.108Z,16.80
2023-04-09T12:34:42.415Z,18.05
2023-04-09T12:35:45.696Z,16.33
2023-04-09T12:36:48.371Z,16.05
2023-04-09T12:37:52.114Z,17.35
2023-04-09T12:38:54.319Z,18.17
2023-04-09T12:39:57.697Z,19.10
2023-04-09T12:41:04.425Z,17.77
2023-04-09T12:42:06.955Z,17.55
2023-04-09T12:43:10.537Z,18.83
2023-04-09T12:44:13.038Z,15.98
2023-04-09T12:45:19.346Z,17.75
2023-04-09T12:46:22.020Z,14.73
2023-04-09T12:47:25.123Z,16.13
2023-04-09T12:48:27.691Z,15.98
2023-04-09T12:49:31.769Z,16.75
2023-04-09T12:50:37.118Z,15.05
2023-04-09T12:51:40.237Z,18.95
2023-04-09T12:52:43.086Z,15.00
2023-04-09T12:53:46.467Z,14.15
2023-04-09T12:54:49.113Z,15.18
2023-04-09T12:56:23.791Z,18.38
2023-04-09T12:57:28.054Z,16.67
2023-04-09T12:58:54.449Z,15.82
2023-04-09T13:00:31.369Z,16.92
2023-04-09T13:02:29.518Z,14.10
2023-04-09T13:03:33.520Z,15.60
2023-04-09T13:04:39.966Z,16.85
2023-04-09T13:05:46.079Z,18.70
2023-04-09T13:06:48.688Z,20.25
2023-04-09T13:07:53.602Z,16.77
2023-04-09T13:10:21.707Z,16.23
2023-04-09T13:11:27.858Z,15.93
2023-04-09T13:12:40.260Z,15.63
2023-04-09T13:14:04.545Z,18.15
2023-04-09T13:15:58.838Z,17.27
2023-04-09T13:17:03.107Z,18.63
2023-04-09T13:18:07.056Z,20.15
2023-04-09T13:19:09.731Z,18.65
2023-04-09T13:20:13.081Z,19.00
2023-04-09T13:21:18.815Z,17.77
2023-04-09T13:22:22.524Z,16.95
2023-04-09T13:23:24.550Z,18.15
2023-04-09T13:24:28.286Z,19.33
2023-04-09T13:25:31.414Z,21.05
2023-04-09T13:26:34.875Z,17.98
2023-04-09T13:27:38.132Z,14.40
2023-04-09T13:28:40.675Z,16.85
2023-04-09T13:29:47.318Z,14.43
2023-04-09T13:30:49.810Z,16.88
2023-04-09T13:31:53.000Z,16.63
2023-04-09T13:32:56.289Z,14.05
2023-04-09T13:34:02.873Z,14.48
2023-04-09T13:35:07.838Z,15.07
2023-04-09T13:36:12.255Z,16.17
2023-04-09T13:37:14.653Z,16.90
2023-04-09T13:38:17.895Z,14.05
2023-04-09T13:39:20.416Z,14.65
2023-04-09T13:40:24.730Z,14.32
2023-04-09T13:41:29.851Z,17.00
2023-04-09T13:42:37.460Z,12.02
2023-04-09T13:43:39.696Z,10.85
2023-04-09T13:44:45.474Z,11.07
2023-04-09T13:45:51.791Z,13.23
2023-04-09T13:46:55.825Z,11.88
2023-04-09T13:47:58.389Z,13.18
2023-04-09T13:49:02.831Z,13.05
2023-04-09T13:50:07.600Z,15.73
2023-04-09T13:51:10.805Z,13.57
2023-04-09T13:52:14.443Z,14.00
2023-04-09T13:53:17.022Z,13.13
2023-04-09T13:54:20.184Z,12.38
2023-04-09T13:55:22.252Z,14.18
2023-04-09T13:56:25.433Z,12.43
2023-04-09T13:57:27.395Z,13.15
2023-04-09T13:58:31.703Z,13.35
2023-04-09T13:59:34.915Z,12.90
2023-04-09T14:00:38.124Z,11.57